Pagrindinis puslapis
METAR-TAF:

METAR-TAF

Oro uostai :

Frontone, Italija

platuma: 43-31N, ilguma: 012-44E, Aukštis: 570 m

Dabartinis oras

Ataskaita buvo paskelbta 1 valandą ir 8 minutes, ne 02:55 UTC
Vėjas 15 kt iš Rytų
Temperatūra 8°C
Drėgmė 66%
Slėgis 1019 hPa
Matomumas 10 km arba daugiau
Mažai debesys ne aukštis 2700 ft
Išsisklaidę debesys ne aukštis 3500 ft

METAR: LIVF 180255Z 09015KT 9999 FEW027 SCT035 08/02 Q1019 RMK BKN MON S W CIME INC VAL NIL VIS MIN 9999

Laikas: 05:03 (04:03 UTC)


TAF: trūkstamas

Orai ataskaitas ir orų prognozės (METAR, TAF).

turimą stotys yra geltonos ir raudonos taškus žemėlapyje.

Perkelti pele per norėdami pamatyti stoties vardą.

Tada spustelėkite, norėdami matyti oro stebėjimo ir prognozės.

Norėdami pakeisti žemėlapį: spustelėkite ant žalios mygtukų su juodo kryžiaus žemyn,; žalią mygtuką su brūkšneliu, jei norite nutolinti; arba žalių rodyklių gretimoms žemėlapius.


METAR-TAF: